createdAt,value
2018-07-09T00:00:59.593Z,99178.89
2018-07-09T00:03:28.166Z,99178.33
2018-07-09T00:05:56.523Z,99171.94
2018-07-09T00:08:24.930Z,99175.63
2018-07-09T00:10:55.831Z,99179.38
2018-07-09T00:13:24.690Z,99173.73
2018-07-09T00:15:53.436Z,99168.44
2018-07-09T00:18:21.749Z,99172.31
2018-07-09T00:20:50.298Z,99165.82
2018-07-09T00:23:18.780Z,99162.14
2018-07-09T00:25:48.017Z,99161.82
2018-07-09T00:28:17.277Z,99163.88
2018-07-09T00:30:45.545Z,99160.48
2018-07-09T00:33:14.193Z,99159.69
2018-07-09T00:35:42.610Z,99168.50
2018-07-09T00:38:11.192Z,99163.13
2018-07-09T00:40:39.483Z,99168.75
2018-07-09T00:43:07.754Z,99166.48
2018-07-09T00:45:36.025Z,99168.91
2018-07-09T00:48:04.919Z,99156.73
2018-07-09T00:50:33.394Z,99160.82
2018-07-09T00:53:01.714Z,99157.22
2018-07-09T00:55:30.042Z,99165.06
2018-07-09T00:57:58.625Z,99166.92
2018-07-09T01:00:26.904Z,99162.36
2018-07-09T01:02:55.390Z,99161.72
2018-07-09T01:05:23.766Z,99159.45
2018-07-09T01:07:52.345Z,99159.25
2018-07-09T01:10:20.935Z,99162.56
2018-07-09T01:12:49.311Z,99164.91
2018-07-09T01:15:17.689Z,99164.09
2018-07-09T01:17:45.962Z,99164.86
2018-07-09T01:20:14.336Z,99163.28
2018-07-09T01:22:42.619Z,99161.55
2018-07-09T01:25:10.995Z,99166.00
2018-07-09T01:27:39.374Z,99164.16
2018-07-09T01:30:10.890Z,99159.34
2018-07-09T01:32:39.441Z,99160.55
2018-07-09T01:35:08.551Z,99169.16
2018-07-09T01:37:37.377Z,99165.44
2018-07-09T01:40:05.766Z,99168.95
2018-07-09T01:42:33.938Z,99168.87
2018-07-09T01:45:02.010Z,99168.30
2018-07-09T01:47:30.529Z,99164.95
2018-07-09T01:49:58.483Z,99177.41
2018-07-09T01:52:26.725Z,99171.98
2018-07-09T01:54:55.100Z,99165.95
2018-07-09T01:57:23.377Z,99169.84
2018-07-09T01:59:51.969Z,99173.95
2018-07-09T02:02:20.345Z,99171.27
2018-07-09T02:04:48.718Z,99164.76
2018-07-09T02:07:16.893Z,99170.09
2018-07-09T02:09:45.076Z,99164.48
2018-07-09T02:12:13.341Z,99170.55
2018-07-09T02:14:41.622Z,99178.99
2018-07-09T02:17:09.889Z,99174.59
2018-07-09T02:19:38.264Z,99176.16
2018-07-09T02:22:06.645Z,99183.02
2018-07-09T02:24:35.038Z,99183.78
2018-07-09T02:27:03.355Z,99185.80
2018-07-09T02:29:31.644Z,99191.66
2018-07-09T02:31:59.958Z,99184.58
2018-07-09T02:34:28.159Z,99189.27
2018-07-09T02:36:56.285Z,99191.66
2018-07-09T02:39:24.573Z,99186.94
2018-07-09T02:41:53.665Z,99178.48
2018-07-09T02:44:21.632Z,99179.61
2018-07-09T02:46:50.021Z,99183.69
2018-07-09T02:49:18.443Z,99184.73
2018-07-09T02:51:46.769Z,99185.23
2018-07-09T02:54:15.501Z,99186.36
2018-07-09T02:56:43.840Z,99190.17
2018-07-09T02:59:11.806Z,99186.61
2018-07-09T03:01:40.187Z,99195.72
2018-07-09T03:04:08.423Z,99189.94
2018-07-09T03:06:36.531Z,99190.66
2018-07-09T03:09:05.319Z,99195.56
2018-07-09T03:11:33.585Z,99186.30
2018-07-09T03:14:01.571Z,99187.72
2018-07-09T03:16:29.973Z,99193.70
2018-07-09T03:18:58.346Z,99187.53
2018-07-09T03:21:26.686Z,99190.74
2018-07-09T03:23:55.074Z,99191.66
2018-07-09T03:26:23.442Z,99195.66
2018-07-09T03:28:51.932Z,99194.81
2018-07-09T03:31:20.198Z,99195.87
2018-07-09T03:33:48.881Z,99203.56
2018-07-09T03:36:16.962Z,99197.94
2018-07-09T03:38:45.230Z,99198.27
2018-07-09T03:41:13.509Z,99193.97
2018-07-09T03:43:41.898Z,99195.77
2018-07-09T03:46:10.194Z,99188.20
2018-07-09T03:48:38.539Z,99195.72
2018-07-09T03:51:07.126Z,99197.97
2018-07-09T03:53:35.393Z,99197.81
2018-07-09T03:56:04.087Z,99197.53
2018-07-09T03:58:32.574Z,99200.77
2018-07-09T04:01:00.767Z,99200.91
2018-07-09T04:03:29.322Z,99199.99
2018-07-09T04:05:57.598Z,99199.16
2018-07-09T04:08:25.573Z,99203.30
2018-07-09T04:10:54.038Z,99201.69
2018-07-09T04:13:22.323Z,99204.48
2018-07-09T04:15:50.706Z,99210.45
2018-07-09T04:18:22.326Z,99211.84
2018-07-09T04:20:50.572Z,99208.41
2018-07-09T04:23:18.866Z,99204.20
2018-07-09T04:25:47.170Z,99204.36
2018-07-09T04:28:15.535Z,99206.51
2018-07-09T04:30:43.479Z,99205.73
2018-07-09T04:33:11.688Z,99209.33
2018-07-09T04:35:39.964Z,99214.56
2018-07-09T04:38:07.968Z,99217.18
2018-07-09T04:40:36.423Z,99218.92
2018-07-09T04:43:04.689Z,99222.92
2018-07-09T04:45:32.612Z,99223.13
2018-07-09T04:48:00.837Z,99222.45
2018-07-09T04:50:29.108Z,99227.73
2018-07-09T04:52:57.286Z,99227.94
2018-07-09T04:55:25.549Z,99226.05
2018-07-09T04:57:53.724Z,99230.05
2018-07-09T05:00:22.115Z,99226.24
2018-07-09T05:02:50.280Z,99224.22
2018-07-09T05:05:18.663Z,99222.45
2018-07-09T05:07:47.300Z,99225.25
2018-07-09T05:10:15.624Z,99224.99
2018-07-09T05:12:43.994Z,99230.08
2018-07-09T05:15:12.189Z,99227.30
2018-07-09T05:17:40.554Z,99228.61
2018-07-09T05:20:08.927Z,99233.56
2018-07-09T05:22:37.418Z,99236.78
2018-07-09T05:25:05.877Z,99246.14
2018-07-09T05:27:34.270Z,99241.58
2018-07-09T05:30:02.646Z,99244.77
2018-07-09T05:32:30.991Z,99240.81
2018-07-09T05:34:59.510Z,99242.65
2018-07-09T05:37:27.873Z,99249.59
2018-07-09T05:39:56.376Z,99249.30
2018-07-09T05:42:24.945Z,99258.45
2018-07-09T05:44:53.228Z,99256.28
2018-07-09T05:47:21.802Z,99256.11
2018-07-09T05:49:51.246Z,99260.70
2018-07-09T05:52:19.784Z,99259.27
2018-07-09T05:54:48.295Z,99258.13
2018-07-09T05:57:16.793Z,99258.66
2018-07-09T05:59:45.435Z,99255.32
2018-07-09T06:02:13.742Z,99260.27
2018-07-09T06:04:41.982Z,99264.14
2018-07-09T06:07:10.362Z,99266.02
2018-07-09T06:09:38.395Z,99264.98
2018-07-09T06:12:06.872Z,99265.02
2018-07-09T06:14:35.381Z,99265.11
2018-07-09T06:17:03.397Z,99268.65
2018-07-09T06:19:31.784Z,99264.81
2018-07-09T06:22:00.350Z,99264.84
2018-07-09T06:24:28.701Z,99259.88
2018-07-09T06:26:57.069Z,99260.98
2018-07-09T06:29:25.405Z,99259.65
2018-07-09T06:31:53.833Z,99263.15
2018-07-09T06:34:22.422Z,99260.49
2018-07-09T06:36:50.889Z,99256.00
2018-07-09T06:39:19.366Z,99251.36
2018-07-09T06:41:47.541Z,99253.91
2018-07-09T06:44:15.835Z,99247.13
2018-07-09T06:46:43.984Z,99244.62
2018-07-09T06:49:12.261Z,99252.52
2018-07-09T06:51:40.544Z,99250.20
2018-07-09T06:54:09.018Z,99250.59
2018-07-09T06:56:36.946Z,99259.00
2018-07-09T06:59:05.376Z,99260.52
2018-07-09T07:01:33.646Z,99266.20
2018-07-09T07:04:01.825Z,99259.50
2018-07-09T07:06:30.241Z,99260.72
2018-07-09T07:08:58.814Z,99258.23
2018-07-09T07:11:27.253Z,99254.29
2018-07-09T07:13:55.639Z,99255.30
2018-07-09T07:16:24.023Z,99255.67
2018-07-09T07:18:52.403Z,99252.37
2018-07-09T07:21:20.767Z,99253.21
2018-07-09T07:23:48.918Z,99259.40
2018-07-09T07:26:17.425Z,99258.02
2018-07-09T07:28:45.794Z,99260.72
2018-07-09T07:31:14.284Z,99262.58
2018-07-09T07:33:42.454Z,99263.28
2018-07-09T07:36:10.834Z,99259.08
2018-07-09T07:38:39.212Z,99263.76
2018-07-09T07:41:07.805Z,99261.91
2018-07-09T07:43:39.021Z,99259.89
2018-07-09T07:46:07.545Z,99264.79
2018-07-09T07:48:36.093Z,99259.89
2018-07-09T07:51:04.409Z,99261.25
2018-07-09T07:53:32.858Z,99266.44
2018-07-09T07:56:01.131Z,99265.09
2018-07-09T07:58:29.416Z,99264.45
2018-07-09T08:00:57.883Z,99263.27
2018-07-09T08:03:26.266Z,99261.92
2018-07-09T08:05:54.535Z,99257.55
2018-07-09T08:08:22.909Z,99256.86
2018-07-09T08:10:51.397Z,99254.16
2018-07-09T08:13:29.008Z,99244.62
2018-07-09T08:15:48.357Z,99244.75
2018-07-09T08:18:16.645Z,99240.84
2018-07-09T08:20:44.573Z,99236.16
2018-07-09T08:23:12.882Z,99239.80
2018-07-09T08:25:41.303Z,99241.49
2018-07-09T08:28:09.372Z,99241.58
2018-07-09T08:30:37.701Z,99238.93
2018-07-09T08:33:06.174Z,99235.17
2018-07-09T08:35:34.459Z,99231.15
2018-07-09T08:38:02.755Z,99230.42
2018-07-09T08:40:31.084Z,99225.02
2018-07-09T08:42:59.280Z,99219.36
2018-07-09T08:45:27.662Z,99218.86
2018-07-09T08:47:56.160Z,99214.63
2018-07-09T08:50:24.530Z,99217.52
2018-07-09T08:52:52.889Z,99224.20
2018-07-09T08:55:21.281Z,99223.20
2018-07-09T08:57:49.763Z,99226.83
2018-07-09T09:00:18.169Z,99225.78
2018-07-09T09:02:46.523Z,99226.82
2018-07-09T09:05:15.094Z,99220.28
2018-07-09T09:07:43.360Z,99217.98
2018-07-09T09:10:11.850Z,99226.36
2018-07-09T09:12:40.430Z,99225.89
2018-07-09T09:15:08.712Z,99226.48
2018-07-09T09:17:37.193Z,99221.31
2018-07-09T09:20:05.567Z,99223.68
2018-07-09T09:22:33.946Z,99223.34
2018-07-09T09:25:02.413Z,99221.73
2018-07-09T09:27:30.693Z,99227.86
2018-07-09T09:29:58.879Z,99228.31
2018-07-09T09:32:27.253Z,99235.63
2018-07-09T09:34:55.636Z,99227.47
2018-07-09T09:37:24.004Z,99230.45
2018-07-09T09:39:52.484Z,99230.84
2018-07-09T09:42:20.857Z,99237.82
2018-07-09T09:44:49.121Z,99242.11
2018-07-09T09:47:17.635Z,99235.33
2018-07-09T09:49:45.898Z,99231.42
2018-07-09T09:52:14.263Z,99228.16
2018-07-09T09:54:42.445Z,99238.09
2018-07-09T09:57:11.536Z,99240.11
2018-07-09T09:59:40.017Z,99234.89
2018-07-09T10:02:08.489Z,99228.66
2018-07-09T10:04:36.664Z,99225.98
2018-07-09T10:07:05.058Z,99229.16
2018-07-09T10:09:33.121Z,99226.52
2018-07-09T10:12:01.410Z,99228.12
2018-07-09T10:14:29.869Z,99221.75
2018-07-09T10:16:58.311Z,99223.23
2018-07-09T10:19:26.837Z,99221.69
2018-07-09T10:21:55.109Z,99218.34
2018-07-09T10:24:23.487Z,99213.34
2018-07-09T10:26:51.970Z,99203.44
2018-07-09T10:29:20.245Z,99205.82
2018-07-09T10:31:48.526Z,99190.12
2018-07-09T10:34:17.106Z,99190.64
2018-07-09T10:36:45.496Z,99186.60
2018-07-09T10:39:13.749Z,99182.66
2018-07-09T10:41:42.280Z,99181.75
2018-07-09T10:44:10.518Z,99178.09
2018-07-09T10:46:38.917Z,99173.86
2018-07-09T10:49:07.269Z,99175.05
2018-07-09T10:51:35.527Z,99169.68
2018-07-09T10:54:04.017Z,99172.20
2018-07-09T10:56:32.302Z,99158.25
2018-07-09T10:59:00.770Z,99165.84
2018-07-09T11:01:29.145Z,99165.39
2018-07-09T11:03:57.638Z,99161.80
2018-07-09T11:06:25.915Z,99158.97
2018-07-09T11:08:54.281Z,99164.48
2018-07-09T11:11:22.563Z,99166.38
2018-07-09T11:13:50.946Z,99166.67
2018-07-09T11:16:19.265Z,99164.84
2018-07-09T11:18:47.493Z,99165.89
2018-07-09T11:21:15.670Z,99160.36
2018-07-09T11:23:44.046Z,99164.23
2018-07-09T11:26:12.520Z,99151.40
2018-07-09T11:28:41.130Z,99149.14
2018-07-09T11:31:09.581Z,99150.54
2018-07-09T11:33:37.486Z,99154.20
2018-07-09T11:36:06.086Z,99146.36
2018-07-09T11:38:34.409Z,99144.97
2018-07-09T11:41:02.513Z,99141.46
2018-07-09T11:43:30.966Z,99137.67
2018-07-09T11:45:59.244Z,99139.97
2018-07-09T11:48:27.182Z,99142.36
2018-07-09T11:50:55.689Z,99148.64
2018-07-09T11:53:24.056Z,99141.70
2018-07-09T11:55:52.197Z,99133.29
2018-07-09T11:58:20.521Z,99133.69
2018-07-09T12:00:48.750Z,99128.92
2018-07-09T12:03:16.661Z,99129.09
2018-07-09T12:05:44.938Z,99131.63
2018-07-09T12:08:13.405Z,99122.75
2018-07-09T12:10:41.884Z,99114.98
2018-07-09T12:13:10.373Z,99114.80
2018-07-09T12:15:38.650Z,99105.08
2018-07-09T12:18:06.934Z,99104.38
2018-07-09T12:20:35.301Z,99106.90
2018-07-09T12:23:03.931Z,99107.09
2018-07-09T12:25:32.265Z,99101.48
2018-07-09T12:28:00.639Z,99102.72
2018-07-09T12:30:29.013Z,99104.77
2018-07-09T12:32:57.534Z,99106.43
2018-07-09T12:35:25.765Z,99096.35
2018-07-09T12:37:54.157Z,99103.15
2018-07-09T12:40:22.638Z,99097.20
2018-07-09T12:42:51.110Z,99099.86
2018-07-09T12:45:19.300Z,99098.38
2018-07-09T12:47:47.662Z,99098.64
2018-07-09T12:50:15.942Z,99103.22
2018-07-09T12:52:44.206Z,99103.02
2018-07-09T12:55:12.490Z,99105.72
2018-07-09T12:57:40.766Z,99100.08
2018-07-09T13:00:09.245Z,99092.37
2018-07-09T13:02:37.518Z,99093.91
2018-07-09T13:05:06.043Z,99082.56
2018-07-09T13:07:35.042Z,99086.70
2018-07-09T13:10:03.374Z,99077.84
2018-07-09T13:12:31.855Z,99090.41
2018-07-09T13:15:00.473Z,99076.09
2018-07-09T13:17:29.014Z,99078.08
2018-07-09T13:19:57.377Z,99080.46
2018-07-09T13:22:25.565Z,99072.73
2018-07-09T13:24:54.150Z,99077.52
2018-07-09T13:27:22.426Z,99081.94
2018-07-09T13:29:50.698Z,99085.75
2018-07-09T13:32:19.082Z,99074.43
2018-07-09T13:34:47.549Z,99075.23
2018-07-09T13:37:15.822Z,99078.33
2018-07-09T13:39:44.311Z,99086.59
2018-07-09T13:42:12.802Z,99083.50
2018-07-09T13:44:41.261Z,99087.07
2018-07-09T13:47:09.650Z,99080.11
2018-07-09T13:49:38.031Z,99079.20
2018-07-09T13:52:06.308Z,99082.57
2018-07-09T13:54:34.881Z,99081.42
2018-07-09T13:57:03.046Z,99074.70
2018-07-09T13:59:30.957Z,99081.36
2018-07-09T14:01:59.301Z,99085.77
2018-07-09T14:04:27.709Z,99087.58
2018-07-09T14:06:55.662Z,99083.16
2018-07-09T14:09:24.136Z,99078.23
2018-07-09T14:11:52.618Z,99080.13
2018-07-09T14:14:20.481Z,99079.30
2018-07-09T14:16:48.845Z,99077.52
2018-07-09T14:19:27.725Z,99077.91
2018-07-09T14:21:55.964Z,99084.02
2018-07-09T14:24:24.421Z,99084.52
2018-07-09T14:26:52.915Z,99084.36
2018-07-09T14:29:21.281Z,99075.66
2018-07-09T14:31:49.454Z,99076.20
2018-07-09T14:34:17.732Z,99071.91
2018-07-09T14:36:46.213Z,99070.29
2018-07-09T14:39:14.569Z,99081.48
2018-07-09T14:41:42.965Z,99072.22
2018-07-09T14:44:11.258Z,99074.86
2018-07-09T14:46:39.521Z,99070.89
2018-07-09T14:49:07.803Z,99066.09
2018-07-09T14:51:36.126Z,99062.52
2018-07-09T14:54:04.652Z,99057.48
2018-07-09T14:56:32.730Z,99058.89
2018-07-09T14:59:01.143Z,99063.65
2018-07-09T15:01:29.477Z,99061.47
2018-07-09T15:03:57.757Z,99060.69
2018-07-09T15:06:25.724Z,99050.73
2018-07-09T15:08:53.953Z,99053.94
2018-07-09T15:11:22.180Z,99048.45
2018-07-09T15:13:50.258Z,99051.39
2018-07-09T15:16:18.821Z,99049.31
2018-07-09T15:18:47.208Z,99046.02
2018-07-09T15:21:15.174Z,99042.27
2018-07-09T15:23:43.658Z,99044.03
2018-07-09T15:26:11.831Z,99040.73
2018-07-09T15:28:39.992Z,99041.57
2018-07-09T15:31:08.261Z,99034.08
2018-07-09T15:33:36.546Z,99033.17
2018-07-09T15:36:04.985Z,99031.49
2018-07-09T15:38:33.302Z,99035.30
2018-07-09T15:41:01.455Z,99041.91
2018-07-09T15:44:03.848Z,99047.55
2018-07-09T15:46:32.098Z,99047.20
2018-07-09T15:49:00.621Z,99046.18
2018-07-09T15:51:28.913Z,99048.20
2018-07-09T15:53:57.362Z,99051.03
2018-07-09T15:56:26.619Z,99050.64
2018-07-09T15:58:54.912Z,99049.13
2018-07-09T16:01:23.346Z,99053.18
2018-07-09T16:03:51.685Z,99059.67
2018-07-09T16:06:20.263Z,99056.36
2018-07-09T16:08:48.763Z,99060.44
2018-07-09T16:11:17.437Z,99061.38
2018-07-09T16:13:46.077Z,99068.62
2018-07-09T16:16:14.335Z,99061.73
2018-07-09T16:18:42.888Z,99064.50
2018-07-09T16:21:11.139Z,99074.52
2018-07-09T16:23:39.469Z,99069.20
2018-07-09T16:26:07.703Z,99075.27
2018-07-09T16:28:36.202Z,99073.45
2018-07-09T16:31:04.459Z,99072.59
2018-07-09T16:33:32.837Z,99072.86
2018-07-09T16:36:01.173Z,99083.38
2018-07-09T16:38:29.633Z,99097.53
2018-07-09T16:40:58.129Z,99092.16
2018-07-09T16:43:26.146Z,99093.16
2018-07-09T16:45:54.521Z,99107.03
2018-07-09T16:48:22.801Z,99119.59
2018-07-09T16:50:51.659Z,99120.06
2018-07-09T16:53:20.100Z,99124.13
2018-07-09T16:55:48.339Z,99130.67
2018-07-09T16:58:16.613Z,99130.66
2018-07-09T17:00:45.138Z,99128.34
2018-07-09T17:03:13.490Z,99119.80
2018-07-09T17:05:41.749Z,99125.94
2018-07-09T17:08:10.469Z,99143.25
2018-07-09T17:10:38.914Z,99147.06
2018-07-09T17:13:07.193Z,99146.30
2018-07-09T17:15:35.815Z,99141.38
2018-07-09T17:18:04.328Z,99127.69
2018-07-09T17:20:32.425Z,99107.32
2018-07-09T17:23:00.816Z,99101.62
2018-07-09T17:25:29.219Z,99105.66
2018-07-09T17:27:57.309Z,99093.16
2018-07-09T17:30:25.529Z,99092.29
2018-07-09T17:32:53.951Z,99111.69
2018-07-09T17:35:22.524Z,99158.73
2018-07-09T17:37:51.122Z,99196.99
2018-07-09T17:40:19.500Z,99222.14
2018-07-09T17:42:47.945Z,99230.23
2018-07-09T17:45:16.244Z,99223.45
2018-07-09T17:47:44.744Z,99224.83
2018-07-09T17:50:13.359Z,99251.63
2018-07-09T17:52:41.587Z,99253.84
2018-07-09T17:55:10.110Z,99263.13
2018-07-09T17:57:38.639Z,99255.66
2018-07-09T18:00:06.917Z,99243.89
2018-07-09T18:02:35.278Z,99240.80
2018-07-09T18:05:03.833Z,99229.73
2018-07-09T18:07:32.165Z,99273.88
2018-07-09T18:10:00.509Z,99317.52
2018-07-09T18:12:28.769Z,99338.84
2018-07-09T18:14:57.125Z,99348.51
2018-07-09T18:17:25.525Z,99346.19
2018-07-09T18:19:53.794Z,99331.88
2018-07-09T18:22:21.708Z,99324.35
2018-07-09T18:24:49.945Z,99308.04
2018-07-09T18:27:18.317Z,99286.16
2018-07-09T18:29:46.725Z,99279.31
2018-07-09T18:32:15.173Z,99283.02
2018-07-09T18:34:43.657Z,99288.08
2018-07-09T18:37:12.165Z,99303.78
2018-07-09T18:39:40.672Z,99296.30
2018-07-09T18:42:08.789Z,99296.63
2018-07-09T18:44:37.160Z,99296.27
2018-07-09T18:47:05.621Z,99292.30
2018-07-09T18:49:33.927Z,99297.45
2018-07-09T18:52:02.198Z,99311.86
2018-07-09T18:54:30.719Z,99310.73
2018-07-09T18:56:59.108Z,99320.00
2018-07-09T18:59:27.226Z,99321.16
2018-07-09T19:01:55.792Z,99331.64
2018-07-09T19:04:24.332Z,99341.95
2018-07-09T19:06:57.145Z,99353.63
2018-07-09T19:09:26.290Z,99365.44
2018-07-09T19:11:54.652Z,99371.88
2018-07-09T19:14:29.247Z,99383.87
2018-07-09T19:18:17.153Z,99383.45
2018-07-09T19:21:41.578Z,99393.80
2018-07-09T19:24:09.570Z,99397.39
2018-07-09T19:26:36.727Z,99399.08
2018-07-09T19:29:03.508Z,99403.09
2018-07-09T19:31:30.429Z,99392.77
2018-07-09T19:33:57.371Z,99378.47
2018-07-09T19:36:24.158Z,99370.59
2018-07-09T19:38:51.114Z,99355.97
2018-07-09T19:41:17.780Z,99349.62
2018-07-09T19:43:44.517Z,99348.69
2018-07-09T19:46:11.317Z,99350.09
2018-07-09T19:48:38.010Z,99351.92
2018-07-09T19:51:04.840Z,99342.73
2018-07-09T19:53:31.712Z,99341.92
2018-07-09T19:55:58.517Z,99337.57
2018-07-09T19:58:25.260Z,99338.73
2018-07-09T20:00:52.106Z,99351.84
2018-07-09T20:03:18.877Z,99347.63
2018-07-09T20:05:45.504Z,99344.33
2018-07-09T20:08:12.327Z,99342.47
2018-07-09T20:10:44.456Z,99343.55
2018-07-09T20:13:16.774Z,99337.52
2018-07-09T20:15:48.844Z,99342.93
2018-07-09T20:18:15.494Z,99345.20
2018-07-09T20:20:42.088Z,99344.87
2018-07-09T20:23:08.934Z,99334.52
2018-07-09T20:25:35.682Z,99329.78
2018-07-09T20:28:02.517Z,99336.50
2018-07-09T20:30:29.396Z,99342.53
2018-07-09T20:32:56.106Z,99345.23
2018-07-09T20:35:22.926Z,99340.27
2018-07-09T20:37:49.673Z,99336.25
2018-07-09T20:40:16.517Z,99338.67
2018-07-09T20:42:43.397Z,99343.66
2018-07-09T20:45:10.120Z,99355.70
2018-07-09T20:47:36.747Z,99350.66
2018-07-09T20:50:03.574Z,99349.41
2018-07-09T20:52:30.335Z,99356.70
2018-07-09T20:54:57.161Z,99365.00
2018-07-09T20:57:23.900Z,99373.95
2018-07-09T20:59:50.742Z,99389.73
2018-07-09T21:02:17.612Z,99384.30
2018-07-09T21:04:44.448Z,99375.87
2018-07-09T21:07:11.202Z,99360.89
2018-07-09T21:09:38.018Z,99349.27
2018-07-09T21:12:07.921Z,99347.38
2018-07-09T21:14:34.696Z,99350.09
2018-07-09T21:17:01.427Z,99349.01
2018-07-09T21:19:28.250Z,99347.86
2018-07-09T21:21:55.085Z,99338.47
2018-07-09T21:24:21.861Z,99336.46
2018-07-09T21:26:48.570Z,99328.45
2018-07-09T21:29:15.302Z,99322.34
2018-07-09T21:31:42.054Z,99305.52
2018-07-09T21:34:08.794Z,99309.22
2018-07-09T21:36:35.640Z,99311.88
2018-07-09T21:39:03.259Z,99322.32
2018-07-09T21:41:30.071Z,99335.33
2018-07-09T21:43:56.760Z,99346.14
2018-07-09T21:46:23.492Z,99354.80
2018-07-09T21:48:50.232Z,99352.81
2018-07-09T21:51:16.995Z,99357.05
2018-07-09T21:53:43.747Z,99354.72
2018-07-09T21:56:10.471Z,99343.20
2018-07-09T21:58:37.217Z,99345.25
2018-07-09T22:01:04.012Z,99355.70
2018-07-09T22:03:30.704Z,99363.06
2018-07-09T22:05:57.418Z,99367.53
2018-07-09T22:08:24.165Z,99374.13
2018-07-09T22:10:50.903Z,99370.89
2018-07-09T22:13:17.651Z,99383.30
2018-07-09T22:15:44.421Z,99383.91
2018-07-09T22:18:11.132Z,99382.19
2018-07-09T22:20:37.863Z,99370.38
2018-07-09T22:23:04.599Z,99362.14
2018-07-09T22:25:31.323Z,99361.98
2018-07-09T22:27:58.089Z,99358.56
2018-07-09T22:30:28.810Z,99353.02
2018-07-09T22:32:56.985Z,99342.68
2018-07-09T22:35:25.371Z,99333.83
2018-07-09T22:37:53.639Z,99323.09
2018-07-09T22:40:21.714Z,99322.16
2018-07-09T22:42:50.090Z,99331.63
2018-07-09T22:45:18.365Z,99339.91
2018-07-09T22:47:46.625Z,99339.02
2018-07-09T22:50:14.819Z,99337.28
2018-07-09T22:52:43.200Z,99329.48
2018-07-09T22:55:22.529Z,99340.64
2018-07-09T22:57:50.580Z,99346.66
2018-07-09T23:00:19.729Z,99344.45
2018-07-09T23:03:04.465Z,99336.48
2018-07-09T23:05:32.733Z,99330.73
2018-07-09T23:08:01.207Z,99327.45
2018-07-09T23:13:47.107Z,99326.13
2018-07-09T23:16:52.449Z,99334.83
2018-07-09T23:22:15.542Z,99324.22
2018-07-09T23:24:42.367Z,99326.19
2018-07-09T23:27:09.111Z,99327.09
2018-07-09T23:29:35.936Z,99326.34
2018-07-09T23:32:02.702Z,99332.28
2018-07-09T23:34:29.393Z,99324.92
2018-07-09T23:36:56.174Z,99325.22
2018-07-09T23:39:23.013Z,99323.52
2018-07-09T23:41:49.863Z,99336.59
2018-07-09T23:44:16.691Z,99331.89
2018-07-09T23:46:43.537Z,99332.28
2018-07-09T23:49:10.282Z,99326.19
2018-07-09T23:51:37.119Z,99318.69
2018-07-09T23:54:03.963Z,99306.99
2018-07-09T23:58:52.327Z,99295.58
